Time;durP1;ratioP1;P1;durP2;ratioP2;P2;SDS_P1;SDS_P2;PMS_P1;PMS_P2;Temp;Humidity;BMP_temperature;BMP_pressure;BME280_temperature;BME280_humidity;BME280_pressure;Samples;Min_cycle;Max_cycle;Signal;HPM_P1;HPM_P2
2021/06/03 00:00:29;;;;;;;6.25;4.38;;;18.70;84.40;;;;;;5028327;28;20110;-46
2021/06/03 00:02:56;;;;;;;5.10;4.55;;;18.60;86.20;;;;;;5028479;28;20079;-45
2021/06/03 00:05:27;;;;;;;7.00;4.45;;;18.60;86.00;;;;;;5028207;28;20380;-46
2021/06/03 00:07:53;;;;;;;4.95;4.03;;;18.60;86.30;;;;;;5027281;28;20057;-45
2021/06/03 00:10:24;;;;;;;4.63;4.15;;;18.50;88.30;;;;;;5028277;28;20029;-45
2021/06/03 00:12:49;;;;;;;6.38;4.20;;;18.40;89.70;;;;;;5009770;28;20054;-46
2021/06/03 00:15:15;;;;;;;6.88;4.32;;;18.40;90.10;;;;;;5012651;28;20038;-45
2021/06/03 00:17:41;;;;;;;5.10;4.60;;;18.30;90.60;;;;;;5011878;28;20033;-45
2021/06/03 00:20:11;;;;;;;6.63;4.32;;;18.20;91.00;;;;;;5012372;28;20400;-46
2021/06/03 00:22:36;;;;;;;5.60;4.40;;;18.10;91.90;;;;;;5012368;28;20045;-45
2021/06/03 00:25:04;;;;;;;5.65;5.03;;;18.10;93.10;;;;;;4994559;28;20471;-45
2021/06/03 00:27:29;;;;;;;8.23;4.40;;;18.00;94.50;;;;;;5011843;28;20280;-48
2021/06/03 00:29:55;;;;;;;6.38;4.90;;;17.90;95.20;;;;;;5012062;28;20439;-45
2021/06/03 00:32:20;;;;;;;6.38;4.35;;;17.90;94.80;;;;;;5012204;28;20230;-45
2021/06/03 00:34:46;;;;;;;6.93;4.70;;;17.90;94.80;;;;;;5013706;28;20132;-45
2021/06/03 00:37:11;;;;;;;5.70;4.57;;;17.80;95.20;;;;;;5031373;28;20036;-46
2021/06/03 00:39:37;;;;;;;8.35;5.20;;;17.80;95.80;;;;;;5031069;28;20121;-46
2021/06/03 00:42:03;;;;;;;5.97;4.82;;;17.70;96.00;;;;;;5031757;28;20032;-48
2021/06/03 00:44:28;;;;;;;5.30;4.47;;;17.70;96.70;;;;;;5031800;28;20044;-44
2021/06/03 00:46:54;;;;;;;6.55;5.10;;;17.70;96.90;;;;;;5031704;28;20026;-48
2021/06/03 00:49:19;;;;;;;6.63;4.85;;;17.60;97.30;;;;;;5031227;28;20376;-46
2021/06/03 00:51:44;;;;;;;5.97;4.85;;;17.60;97.70;;;;;;5013301;28;20032;-46
2021/06/03 00:54:10;;;;;;;5.88;4.80;;;17.60;97.70;;;;;;5031764;28;20030;-48
2021/06/03 00:56:37;;;;;;;5.65;4.63;;;17.50;98.30;;;;;;5031125;28;20032;-46
2021/06/03 00:59:04;;;;;;;6.10;5.22;;;17.50;98.80;;;;;;5030764;28;20029;-49
2021/06/03 01:01:30;;;;;;;5.57;4.97;;;17.40;99.00;;;;;;5031367;28;20492;-46
2021/06/03 01:03:58;;;;;;;7.03;5.25;;;17.40;99.30;;;;;;5031223;28;20033;-46
2021/06/03 01:06:25;;;;;;;9.35;5.18;;;17.30;99.90;;;;;;5030795;28;20102;-46
2021/06/03 01:08:59;;;;;;;8.77;4.80;;;17.30;99.90;;;;;;5030583;28;20021;-45
2021/06/03 01:11:33;;;;;;;5.70;4.97;;;17.20;99.90;;;;;;5031524;28;20036;-45
2021/06/03 01:14:09;;;;;;;7.40;5.88;;;17.20;99.90;;;;;;5031289;28;20048;-45
2021/06/03 01:16:35;;;;;;;9.05;5.20;;;17.20;99.90;;;;;;5031219;28;20494;-45
2021/06/03 01:19:07;;;;;;;8.80;6.03;;;17.10;99.90;;;;;;5030359;28;20021;-44
2021/06/03 01:22:16;;;;;;;7.15;4.82;;;17.00;99.90;;;;;;5030638;28;20034;-44
2021/06/03 01:24:47;;;;;;;7.85;5.13;;;17.00;99.90;;;;;;4988326;28;20178;-47
2021/06/03 01:27:24;;;;;;;6.63;5.22;;;16.90;99.90;;;;;;5008056;28;20082;-45
2021/06/03 01:30:16;;;;;;;5.78;5.18;;;16.90;99.90;;;;;;5030604;28;20087;-44
2021/06/03 01:32:47;;;;;;;7.78;5.00;;;16.90;99.90;;;;;;5013295;28;20387;-44
2021/06/03 01:35:16;;;;;;;;;;;16.90;99.90;;;;;;5030995;28;20435;-44
2021/06/03 01:37:42;;;;;;;6.90;5.38;;;16.80;99.90;;;;;;5029992;28;19959;-44
2021/06/03 01:40:13;;;;;;;7.65;5.55;;;16.70;99.90;;;;;;5030802;28;20045;-43
2021/06/03 01:42:39;;;;;;;;;;;16.70;99.90;;;;;;5030828;28;20040;-46
2021/06/03 01:45:05;;;;;;;6.55;5.45;;;16.70;99.90;;;;;;5030334;28;20251;-44
2021/06/03 01:47:32;;;;;;;6.43;5.45;;;16.60;99.90;;;;;;5029675;28;20098;-48
2021/06/03 01:49:58;;;;;;;7.30;5.75;;;16.60;99.90;;;;;;5030633;28;20061;-45
2021/06/03 01:52:24;;;;;;;12.15;5.63;;;16.60;99.90;;;;;;5012166;28;20026;-46
2021/06/03 01:54:51;;;;;;;9.55;5.60;;;16.50;99.90;;;;;;5030657;28;20113;-45
2021/06/03 01:57:19;;;;;;;6.03;5.43;;;16.40;99.90;;;;;;5030223;28;20053;-44
2021/06/03 01:59:45;;;;;;;8.25;5.88;;;16.40;99.90;;;;;;5029905;28;20067;-47
2021/06/03 02:02:10;;;;;;;7.47;5.85;;;16.40;99.90;;;;;;5030064;28;20116;-45
2021/06/03 02:04:36;;;;;;;10.50;5.60;;;16.30;99.90;;;;;;5029985;28;20258;-46
2021/06/03 02:07:01;;;;;;;8.18;6.28;;;16.30;99.90;;;;;;5029666;28;20104;-44
2021/06/03 02:09:27;;;;;;;7.00;5.50;;;16.30;99.90;;;;;;5029200;28;20025;-47
2021/06/03 02:11:53;;;;;;;7.45;6.05;;;16.30;99.90;;;;;;5029870;28;20540;-46
2021/06/03 02:14:22;;;;;;;9.93;6.13;;;16.30;99.90;;;;;;5030127;28;20037;-44
2021/06/03 02:16:49;;;;;;;8.18;5.68;;;16.30;99.90;;;;;;5029911;28;20026;-45
2021/06/03 02:19:25;;;;;;;8.88;5.82;;;16.30;99.90;;;;;;5029252;28;20462;-46
2021/06/03 02:21:51;;;;;;;7.85;5.35;;;16.20;99.90;;;;;;5028650;28;20033;-44
2021/06/03 02:24:17;;;;;;;6.43;5.53;;;16.20;99.90;;;;;;5029386;28;20116;-45
2021/06/03 02:26:43;;;;;;;7.40;5.82;;;16.10;99.90;;;;;;5029513;28;20112;-44
2021/06/03 02:29:10;;;;;;;6.45;5.38;;;16.10;99.90;;;;;;5028908;28;20102;-44
2021/06/03 02:31:36;;;;;;;7.22;5.50;;;16.10;99.90;;;;;;5029424;28;20029;-45
2021/06/03 02:34:04;;;;;;;7.72;5.72;;;16.10;99.90;;;;;;5029559;28;20033;-44
2021/06/03 02:36:30;;;;;;;7.97;6.25;;;16.10;99.90;;;;;;5027999;28;20022;-45
2021/06/03 02:38:56;;;;;;;9.70;5.93;;;16.10;99.90;;;;;;5029051;28;20025;-44
2021/06/03 02:41:23;;;;;;;8.23;5.57;;;16.10;99.90;;;;;;5029582;28;20549;-44
2021/06/03 02:43:49;;;;;;;10.20;5.90;;;16.00;99.90;;;;;;5029136;28;20037;-44
2021/06/03 02:46:17;;;;;;;7.75;5.63;;;16.00;99.90;;;;;;5029173;28;20100;-44
2021/06/03 02:48:43;;;;;;;6.57;5.82;;;16.00;99.90;;;;;;5028631;28;20517;-44
2021/06/03 02:51:10;;;;;;;7.03;5.80;;;16.00;99.90;;;;;;5028910;28;20029;-44
2021/06/03 02:53:36;;;;;;;9.13;5.75;;;16.00;99.90;;;;;;5030113;28;20089;-46
2021/06/03 02:56:02;;;;;;;7.65;6.35;;;15.90;99.90;;;;;;5029211;28;20136;-44
2021/06/03 02:58:27;;;;;;;6.50;5.70;;;15.90;99.90;;;;;;5010942;28;20458;-45
2021/06/03 03:00:53;;;;;;;9.15;5.93;;;15.90;99.90;;;;;;5029421;28;20044;-45
2021/06/03 03:03:19;;;;;;;6.78;5.85;;;15.90;99.90;;;;;;5029001;28;20026;-46
2021/06/03 03:05:45;;;;;;;6.32;5.60;;;15.90;99.90;;;;;;5028771;28;20475;-44
2021/06/03 03:08:11;;;;;;;9.07;6.30;;;15.80;99.90;;;;;;5010581;28;20091;-46
2021/06/03 03:10:40;;;;;;;8.35;6.03;;;15.90;99.90;;;;;;5019969;28;20113;-44
2021/06/03 03:13:07;;;;;;;7.93;5.68;;;15.80;99.90;;;;;;5017373;28;20467;-43
2021/06/03 03:15:34;;;;;;;7.43;5.40;;;15.80;99.90;;;;;;5009104;28;20033;-45
2021/06/03 03:18:00;;;;;;;6.88;6.18;;;15.80;99.90;;;;;;5008634;28;20018;-44
2021/06/03 03:20:27;;;;;;;7.13;5.45;;;15.70;99.90;;;;;;5016979;28;20040;-46
2021/06/03 03:22:53;;;;;;;11.15;6.40;;;15.70;99.90;;;;;;5009202;28;20089;-46
2021/06/03 03:25:20;;;;;;;9.25;6.20;;;15.70;99.90;;;;;;5018253;28;20115;-46
2021/06/03 03:27:47;;;;;;;9.73;6.70;;;15.70;99.90;;;;;;5008042;28;20046;-47
2021/06/03 03:30:14;;;;;;;9.18;6.47;;;15.70;99.90;;;;;;5018451;28;20117;-46
2021/06/03 03:32:40;;;;;;;7.90;6.85;;;15.70;99.90;;;;;;5017234;28;20048;-46
2021/06/03 03:35:08;;;;;;;9.10;6.40;;;15.60;99.90;;;;;;5018944;28;20547;-45
2021/06/03 03:37:34;;;;;;;7.75;6.63;;;15.60;99.90;;;;;;5020311;28;20038;-46
2021/06/03 03:39:59;;;;;;;8.85;6.50;;;15.60;99.90;;;;;;5018831;28;20029;-46
2021/06/03 03:42:25;;;;;;;7.75;5.65;;;15.70;99.90;;;;;;5017142;28;20129;-46
2021/06/03 03:44:52;;;;;;;11.65;6.70;;;15.60;99.90;;;;;;5028177;28;20087;-45
2021/06/03 03:47:19;;;;;;;8.32;6.63;;;15.70;99.90;;;;;;5028107;28;20072;-46
2021/06/03 03:49:45;;;;;;;10.48;7.00;;;15.70;99.90;;;;;;5032286;28;20034;-49
2021/06/03 03:52:10;;;;;;;12.50;6.32;;;15.80;99.90;;;;;;5032272;28;20029;-46
2021/06/03 03:54:36;;;;;;;9.80;6.28;;;15.80;99.90;;;;;;5032315;28;20034;-47
2021/06/03 03:57:04;;;;;;;10.18;7.40;;;15.70;99.90;;;;;;5014424;28;20025;-45
2021/06/03 03:59:29;;;;;;;10.13;6.57;;;15.80;99.90;;;;;;5031425;28;20526;-45
2021/06/03 04:01:55;;;;;;;11.27;7.20;;;15.80;99.90;;;;;;5023945;28;20036;-47
2021/06/03 04:04:21;;;;;;;10.43;7.32;;;15.90;99.90;;;;;;5022626;28;20144;-48
2021/06/03 04:06:48;;;;;;;9.88;6.63;;;15.90;99.90;;;;;;5022622;28;20058;-46
2021/06/03 04:09:14;;;;;;;11.38;7.05;;;15.90;99.90;;;;;;5028489;28;20079;-46
2021/06/03 04:11:40;;;;;;;10.20;6.68;;;15.90;99.90;;;;;;5031281;28;20021;-47
2021/06/03 04:14:06;;;;;;;9.02;6.65;;;15.80;99.90;;;;;;5031278;28;20044;-47
2021/06/03 04:16:32;;;;;;;8.80;6.88;;;15.90;99.90;;;;;;5031251;28;20037;-45
2021/06/03 04:18:58;;;;;;;9.80;7.15;;;15.90;99.90;;;;;;5030739;28;20030;-46
2021/06/03 04:21:23;;;;;;;9.55;7.00;;;15.80;99.90;;;;;;5031518;28;20029;-46
2021/06/03 04:23:50;;;;;;;8.65;6.68;;;16.00;99.90;;;;;;5013109;28;20503;-46
2021/06/03 04:26:16;;;;;;;8.82;6.93;;;16.00;99.90;;;;;;5028607;28;20113;-46
2021/06/03 04:28:42;;;;;;;9.25;7.22;;;16.00;99.90;;;;;;5022111;28;20033;-49
2021/06/03 04:31:09;;;;;;;7.57;6.80;;;16.00;99.90;;;;;;5021094;28;20026;-46
2021/06/03 04:33:35;;;;;;;9.45;7.75;;;16.10;99.90;;;;;;5022312;28;20079;-49
2021/06/03 04:36:01;;;;;;;7.72;6.65;;;16.10;99.90;;;;;;5017918;28;20021;-46
2021/06/03 04:38:26;;;;;;;8.52;6.65;;;16.10;99.90;;;;;;5020071;28;20017;-48
2021/06/03 04:40:52;;;;;;;12.10;7.65;;;16.10;99.90;;;;;;5019040;28;20022;-46
2021/06/03 04:43:17;;;;;;;9.27;6.70;;;16.10;99.90;;;;;;5025052;28;20443;-46
2021/06/03 04:45:43;;;;;;;12.93;7.13;;;16.20;99.90;;;;;;5010905;28;20030;-44
2021/06/03 04:48:09;;;;;;;11.05;6.90;;;16.20;99.90;;;;;;5019477;28;20467;-45
2021/06/03 04:50:37;;;;;;;9.32;7.10;;;16.20;99.90;;;;;;5021441;28;20032;-46
2021/06/03 04:53:03;;;;;;;10.38;6.45;;;16.20;99.90;;;;;;5020641;28;20056;-46
2021/06/03 04:55:30;;;;;;;10.85;6.88;;;16.30;99.90;;;;;;5030868;28;20538;-46
2021/06/03 04:57:57;;;;;;;9.85;6.72;;;16.30;99.90;;;;;;5030361;28;20494;-45
2021/06/03 05:00:31;;;;;;;8.73;7.13;;;16.40;99.90;;;;;;5030795;28;20029;-47
2021/06/03 05:02:58;;;;;;;8.95;6.93;;;16.40;99.90;;;;;;5031081;28;20026;-45
2021/06/03 05:05:24;;;;;;;10.20;7.85;;;16.40;99.90;;;;;;5030608;28;20052;-46
2021/06/03 05:07:50;;;;;;;8.35;6.88;;;16.40;99.90;;;;;;5029752;28;20030;-47
2021/06/03 05:10:17;;;;;;;9.05;7.40;;;16.40;99.90;;;;;;5030663;28;20272;-47
2021/06/03 05:12:43;;;;;;;11.38;7.90;;;16.40;99.90;;;;;;5030652;28;20036;-45
2021/06/03 05:15:09;;;;;;;7.63;6.85;;;16.40;99.90;;;;;;5030399;28;20147;-45
2021/06/03 05:17:36;;;;;;;8.00;6.78;;;16.40;99.90;;;;;;5029795;28;20029;-45
2021/06/03 05:20:05;;;;;;;9.63;7.40;;;16.40;99.90;;;;;;5030889;28;20033;-46
2021/06/03 05:22:31;;;;;;;10.32;7.82;;;16.40;99.90;;;;;;5030703;28;20034;-49
2021/06/03 05:24:56;;;;;;;9.88;7.53;;;16.40;99.90;;;;;;5030799;28;20642;-48
2021/06/03 05:27:22;;;;;;;10.23;7.65;;;16.50;99.90;;;;;;5030209;28;20031;-45
2021/06/03 05:29:48;;;;;;;13.45;8.00;;;16.50;99.90;;;;;;5012497;28;20033;-48
2021/06/03 05:32:15;;;;;;;9.60;6.90;;;16.60;99.90;;;;;;5030585;28;20224;-45
2021/06/03 05:34:40;;;;;;;9.20;7.22;;;16.60;99.90;;;;;;5030654;28;20483;-48
2021/06/03 05:37:06;;;;;;;10.15;7.50;;;16.60;99.90;;;;;;5029743;28;20091;-45
2021/06/03 05:39:32;;;;;;;10.88;8.27;;;16.70;99.90;;;;;;5029824;28;20037;-46
2021/06/03 05:41:58;;;;;;;11.15;7.38;;;16.70;99.90;;;;;;5030607;28;20026;-47
2021/06/03 05:44:24;;;;;;;11.13;7.95;;;16.80;99.90;;;;;;4996368;28;20041;-47
2021/06/03 05:46:50;;;;;;;9.05;6.90;;;16.80;99.90;;;;;;5030727;28;20041;-50
2021/06/03 05:49:15;;;;;;;11.35;7.50;;;16.90;99.90;;;;;;5029770;28;20092;-50
2021/06/03 05:51:41;;;;;;;9.18;7.68;;;17.00;99.90;;;;;;5029970;28;20030;-48
2021/06/03 05:54:08;;;;;;;9.88;6.82;;;17.00;99.90;;;;;;5012411;28;20108;-49
2021/06/03 05:56:34;;;;;;;10.88;6.88;;;17.10;99.90;;;;;;5030041;28;20056;-47
2021/06/03 05:59:00;;;;;;;11.50;7.25;;;17.30;99.90;;;;;;5029695;28;20064;-48
2021/06/03 06:01:26;;;;;;;10.82;7.40;;;17.40;99.90;;;;;;5030104;28;20026;-50
2021/06/03 06:04:09;;;;;;;9.45;6.20;;;17.50;99.90;;;;;;5030024;28;20060;-48
2021/06/03 06:06:35;;;;;;;10.45;7.18;;;17.50;99.90;;;;;;5011574;28;20127;-47
2021/06/03 06:09:05;;;;;;;10.90;7.57;;;17.50;99.90;;;;;;5029267;28;20092;-49
2021/06/03 06:11:37;;;;;;;11.20;7.65;;;17.60;99.90;;;;;;5029170;28;20010;-50
2021/06/03 06:14:04;;;;;;;9.18;7.03;;;17.60;99.90;;;;;;5029956;28;20480;-49
2021/06/03 06:16:30;;;;;;;11.13;7.80;;;17.60;99.90;;;;;;5030230;28;20167;-47
2021/06/03 06:18:56;;;;;;;11.80;7.70;;;17.70;99.90;;;;;;5027921;28;20026;-48
2021/06/03 06:21:22;;;;;;;9.90;6.90;;;17.70;99.90;;;;;;5028400;28;20033;-50
2021/06/03 06:23:49;;;;;;;11.48;7.20;;;17.70;99.90;;;;;;5028351;28;20311;-48
2021/06/03 06:26:15;;;;;;;13.18;7.68;;;17.80;99.90;;;;;;5029264;28;20025;-48
2021/06/03 06:28:42;;;;;;;10.10;6.35;;;17.90;99.90;;;;;;5029086;28;20047;-48
2021/06/03 06:31:08;;;;;;;8.25;6.93;;;17.90;99.90;;;;;;5029520;28;20025;-47
2021/06/03 06:33:34;;;;;;;7.95;6.00;;;18.00;99.90;;;;;;5029455;28;20502;-47
2021/06/03 06:36:01;;;;;;;9.20;7.60;;;18.10;99.90;;;;;;5023398;28;20026;-49
2021/06/03 06:38:27;;;;;;;8.65;7.00;;;18.20;99.90;;;;;;5019350;28;20033;-47
2021/06/03 06:40:54;;;;;;;8.30;6.32;;;18.40;99.90;;;;;;5009746;28;20033;-48
2021/06/03 06:43:19;;;;;;;8.85;6.35;;;18.50;99.90;;;;;;5009682;28;20255;-47
2021/06/03 06:45:46;;;;;;;8.95;6.65;;;18.70;99.90;;;;;;5009650;28;20038;-47
2021/06/03 06:48:15;;;;;;;12.52;7.30;;;18.90;99.90;;;;;;5008875;28;20488;-49
2021/06/03 06:50:41;;;;;;;6.78;5.72;;;19.10;99.90;;;;;;5011602;28;20447;-48
2021/06/03 06:53:08;;;;;;;8.55;6.32;;;19.30;99.90;;;;;;5022870;28;20033;-48
2021/06/03 06:55:33;;;;;;;10.93;6.53;;;19.60;99.90;;;;;;5028811;28;20032;-47
2021/06/03 06:57:59;;;;;;;7.13;6.32;;;19.80;99.90;;;;;;5028368;28;20021;-47
2021/06/03 07:00:29;;;;;;;9.20;6.85;;;20.00;99.90;;;;;;5028883;28;20115;-48
2021/06/03 07:02:55;;;;;;;9.07;6.65;;;20.20;99.90;;;;;;5013215;28;20041;-49
2021/06/03 07:05:22;;;;;;;11.43;6.95;;;20.40;99.90;;;;;;5012550;28;20041;-48
2021/06/03 07:07:48;;;;;;;7.75;5.32;;;20.60;99.90;;;;;;5017947;28;20030;-47
2021/06/03 07:10:15;;;;;;;9.52;6.68;;;20.70;99.90;;;;;;5009417;28;20072;-48
2021/06/03 07:12:41;;;;;;;8.45;6.22;;;20.90;99.90;;;;;;5008422;28;20029;-45
2021/06/03 07:15:09;;;;;;;9.70;6.22;;;21.00;99.80;;;;;;5007729;28;20033;-48
2021/06/03 07:17:35;;;;;;;9.70;6.45;;;21.30;99.00;;;;;;5007777;28;20117;-47
2021/06/03 07:20:03;;;;;;;11.73;6.25;;;21.40;98.10;;;;;;5008482;28;20168;-48
2021/06/03 07:22:28;;;;;;;7.60;5.70;;;21.50;97.20;;;;;;5011137;28;20034;-48
2021/06/03 07:24:54;;;;;;;7.75;5.95;;;21.50;97.00;;;;;;5007761;28;20033;-48
2021/06/03 07:27:19;;;;;;;11.02;5.97;;;21.70;95.90;;;;;;5008642;28;20025;-49
2021/06/03 07:29:45;;;;;;;8.63;5.80;;;21.90;96.00;;;;;;5008524;28;20038;-48
2021/06/03 07:32:10;;;;;;;10.35;6.03;;;22.00;95.60;;;;;;5008880;28;20061;-48
2021/06/03 07:34:36;;;;;;;8.20;5.32;;;22.30;94.60;;;;;;5007549;28;20034;-48
2021/06/03 07:37:02;;;;;;;7.28;5.82;;;22.40;93.80;;;;;;5025500;28;20442;-49
2021/06/03 07:39:28;;;;;;;8.18;5.50;;;22.50;94.00;;;;;;5028102;28;20036;-48
2021/06/03 07:41:54;;;;;;;9.63;5.70;;;22.70;92.50;;;;;;5028920;28;20064;-47
2021/06/03 07:44:19;;;;;;;6.80;5.30;;;22.90;92.30;;;;;;5011053;28;20045;-48
2021/06/03 07:46:45;;;;;;;10.85;6.10;;;23.10;90.70;;;;;;5028534;28;20031;-50
2021/06/03 07:49:13;;;;;;;10.10;5.85;;;23.20;90.30;;;;;;5027891;28;20479;-50
2021/06/03 07:51:39;;;;;;;7.43;5.70;;;23.30;90.20;;;;;;5028271;28;20013;-48
2021/06/03 07:54:05;;;;;;;6.10;5.15;;;23.50;87.90;;;;;;5028518;28;20032;-48
2021/06/03 07:56:30;;;;;;;8.65;5.95;;;23.60;86.20;;;;;;5028509;28;20030;-50
2021/06/03 07:58:56;;;;;;;5.97;5.38;;;23.80;85.70;;;;;;5027847;28;20029;-50
2021/06/03 08:01:21;;;;;;;8.57;5.65;;;23.90;85.60;;;;;;5028385;28;20032;-46
2021/06/03 08:03:47;;;;;;;7.72;5.80;;;24.00;81.70;;;;;;5028371;28;20425;-48
2021/06/03 08:06:13;;;;;;;8.43;5.43;;;24.10;81.40;;;;;;5028380;28;20083;-50
2021/06/03 08:08:38;;;;;;;6.65;5.10;;;24.10;81.70;;;;;;5027863;28;20510;-49
2021/06/03 08:11:06;;;;;;;5.93;4.80;;;24.30;79.60;;;;;;5028404;28;20104;-48
2021/06/03 08:13:32;;;;;;;6.82;4.97;;;24.70;76.80;;;;;;5028159;28;20129;-49
2021/06/03 08:15:58;;;;;;;10.27;4.78;;;25.10;74.80;;;;;;5028404;28;20403;-47
2021/06/03 08:18:24;;;;;;;6.50;4.63;;;25.60;73.00;;;;;;5027585;28;20056;-47
2021/06/03 08:20:56;;;;;;;8.35;4.78;;;25.90;72.60;;;;;;5028476;28;20483;-48
2021/06/03 08:23:23;;;;;;;9.68;5.03;;;26.40;72.20;;;;;;5028425;28;20033;-45
2021/06/03 08:25:49;;;;;;;7.60;4.30;;;27.00;68.10;;;;;;5028301;28;20076;-46
2021/06/03 08:28:16;;;;;;;7.60;4.85;;;27.30;67.20;;;;;;5009280;28;20057;-47
2021/06/03 08:30:42;;;;;;;4.88;4.38;;;27.40;64.80;;;;;;5028210;28;20540;-49
2021/06/03 08:33:08;;;;;;;7.75;4.32;;;27.60;63.30;;;;;;5010644;28;20073;-45
2021/06/03 08:35:35;;;;;;;9.05;4.72;;;27.60;62.80;;;;;;5031219;28;20021;-46
2021/06/03 08:38:04;;;;;;;4.90;4.28;;;27.60;62.10;;;;;;5013615;28;20026;-48
2021/06/03 08:40:33;;;;;;;6.00;4.38;;;27.40;61.20;;;;;;5031936;28;20033;-46
2021/06/03 08:43:01;;;;;;;5.75;4.55;;;27.60;60.30;;;;;;5032298;28;20045;-47
2021/06/03 08:45:29;;;;;;;6.07;4.50;;;27.50;60.10;;;;;;5031582;28;20395;-46
2021/06/03 08:47:55;;;;;;;5.50;4.22;;;27.30;59.90;;;;;;5031091;28;20024;-46
2021/06/03 08:50:22;;;;;;;6.38;4.18;;;27.50;59.80;;;;;;5031661;28;20092;-47
2021/06/03 08:52:47;;;;;;;7.18;4.13;;;27.60;59.00;;;;;;5031307;28;20022;-47
2021/06/03 08:58:05;;;;;;;5.72;4.20;;;28.00;58.00;;;;;;5002067;28;20041;-47
2021/06/03 09:00:33;;;;;;;6.65;4.63;;;27.70;57.50;;;;;;5031332;28;20111;-45
2021/06/03 09:02:58;;;;;;;6.25;4.53;;;27.40;58.60;;;;;;5031323;28;20108;-46
2021/06/03 09:05:25;;;;;;;6.28;4.07;;;27.10;59.40;;;;;;5031085;28;20108;-46
2021/06/03 09:07:51;;;;;;;5.72;4.00;;;27.00;58.70;;;;;;5012778;28;20029;-50
2021/06/03 09:10:30;;;;;;;5.15;4.00;;;26.90;57.40;;;;;;5031480;28;20040;-47
2021/06/03 09:13:15;;;;;;;9.38;4.53;;;27.20;57.70;;;;;;5031248;28;20498;-50
2021/06/03 09:15:43;;;;;;;9.05;4.80;;;27.10;58.80;;;;;;5013293;28;20036;-49
2021/06/03 09:18:09;;;;;;;4.30;3.85;;;26.90;58.50;;;;;;5030541;28;20523;-47
2021/06/03 09:20:42;;;;;;;6.90;4.60;;;26.80;58.10;;;;;;5031298;28;20096;-47
2021/06/03 09:23:24;;;;;;;6.90;4.53;;;26.60;58.60;;;;;;5031450;28;20029;-47
2021/06/03 09:25:50;;;;;;;5.75;4.90;;;26.60;59.30;;;;;;5030935;28;20497;-47
2021/06/03 09:28:19;;;;;;;9.10;4.30;;;26.70;59.30;;;;;;5030546;28;20061;-46
2021/06/03 09:31:01;;;;;;;6.35;4.53;;;26.70;59.80;;;;;;5030962;28;20477;-47
2021/06/03 09:33:43;;;;;;;6.60;4.00;;;26.70;59.80;;;;;;5031262;28;20033;-47
2021/06/03 09:36:12;;;;;;;6.30;4.20;;;26.50;59.60;;;;;;5012483;28;20064;-48
2021/06/03 09:39:18;;;;;;;7.32;4.35;;;26.50;60.30;;;;;;5030355;28;20025;-46
2021/06/03 09:41:53;;;;;;;7.03;4.15;;;26.50;59.90;;;;;;5009702;28;20650;-48
2021/06/03 09:44:22;;;;;;;8.38;4.32;;;26.40;60.10;;;;;;5012724;28;20029;-46
2021/06/03 09:47:00;;;;;;;6.05;4.75;;;26.40;60.40;;;;;;5030832;28;20090;-50
2021/06/03 09:49:34;;;;;;;5.97;4.95;;;26.40;59.40;;;;;;5030020;28;20037;-50
2021/06/03 09:52:08;;;;;;;4.40;4.00;;;26.30;59.60;;;;;;5012326;28;20052;-50
2021/06/03 09:54:35;;;;;;;7.22;4.40;;;26.40;59.90;;;;;;5030763;28;20029;-47
2021/06/03 09:57:06;;;;;;;9.00;4.40;;;26.10;60.10;;;;;;5030311;28;20087;-48
2021/06/03 09:59:35;;;;;;;4.88;4.13;;;26.20;61.50;;;;;;5029805;28;20033;-48
2021/06/03 10:02:11;;;;;;;5.00;4.28;;;26.20;61.20;;;;;;5030349;28;20755;-48
2021/06/03 10:04:44;;;;;;;5.57;4.22;;;26.60;61.40;;;;;;5030082;28;20060;-48
2021/06/03 10:07:24;;;;;;;5.47;3.97;;;26.70;59.90;;;;;;5029998;28;20018;-48
2021/06/03 10:10:06;;;;;;;5.32;4.43;;;27.10;59.00;;;;;;5030049;28;20057;-49
2021/06/03 10:12:37;;;;;;;6.85;4.47;;;27.10;59.80;;;;;;5012345;28;20426;-48
2021/06/03 10:15:11;;;;;;;7.00;4.55;;;27.10;59.70;;;;;;5030264;28;20025;-50
2021/06/03 10:18:01;;;;;;;8.98;5.10;;;27.40;58.20;;;;;;5027724;28;20033;-47
2021/06/03 10:20:46;;;;;;;6.72;3.88;;;27.30;58.60;;;;;;5029745;28;20033;-47
2021/06/03 10:23:20;;;;;;;5.03;4.00;;;27.60;58.40;;;;;;5030108;28;20178;-46
2021/06/03 10:25:48;;;;;;;7.47;4.40;;;27.60;58.60;;;;;;5029580;28;20045;-48
2021/06/03 10:28:19;;;;;;;6.93;4.60;;;27.80;57.70;;;;;;5028253;28;20029;-47
2021/06/03 10:30:51;;;;;;;7.05;4.10;;;28.10;57.70;;;;;;5030196;28;20025;-49
2021/06/03 10:33:20;;;;;;;4.55;4.15;;;28.40;56.50;;;;;;5029633;28;20049;-50
2021/06/03 10:35:50;;;;;;;4.93;4.00;;;28.40;56.60;;;;;;5028639;28;20024;-49
2021/06/03 10:38:15;;;;;;;;;;;28.50;57.40;;;;;;5029639;28;20059;-48
2021/06/03 10:40:48;;;;;;;7.75;4.18;;;28.10;56.70;;;;;;5029672;28;19944;-47
2021/06/03 10:43:14;;;;;;;4.30;3.88;;;27.80;56.80;;;;;;5029570;28;20288;-48
2021/06/03 10:45:41;;;;;;;5.40;4.53;;;27.90;57.90;;;;;;5029357;28;20040;-47
2021/06/03 10:48:07;;;;;;;4.93;4.40;;;27.90;58.00;;;;;;5028645;28;20494;-48
2021/06/03 10:50:45;;;;;;;7.05;4.60;;;27.70;57.60;;;;;;5029315;28;20120;-48
2021/06/03 10:53:13;;;;;;;6.70;4.22;;;27.90;58.40;;;;;;5029475;28;20022;-48
2021/06/03 10:55:42;;;;;;;7.45;4.25;;;28.10;58.10;;;;;;5029317;28;20032;-48
2021/06/03 10:58:10;;;;;;;4.80;4.30;;;28.40;58.80;;;;;;5028649;28;20087;-48
2021/06/03 11:00:37;;;;;;;6.13;3.63;;;28.80;57.60;;;;;;5026580;28;20163;-47
2021/06/03 11:03:19;;;;;;;9.43;4.40;;;28.40;55.50;;;;;;5019854;28;20364;-47
2021/06/03 11:05:47;;;;;;;8.77;3.55;;;28.50;55.30;;;;;;5021581;28;20360;-47
2021/06/03 11:08:40;;;;;;;5.47;3.60;;;28.40;54.60;;;;;;5022984;28;20033;-49
2021/06/03 11:11:08;;;;;;;3.55;3.25;;;28.40;55.70;;;;;;5020005;28;20066;-48
2021/06/03 11:13:38;;;;;;;6.35;3.95;;;28.10;54.90;;;;;;5020793;28;20483;-48
2021/06/03 11:16:03;;;;;;;4.78;3.67;;;28.10;56.80;;;;;;5023299;28;20032;-50
2021/06/03 11:18:44;;;;;;;5.43;4.05;;;27.70;56.40;;;;;;5021506;28;20033;-48
2021/06/03 11:24:20;;;;;;;6.15;3.70;;;27.60;56.60;;;;;;5021197;28;20036;-47
2021/06/03 11:26:51;;;;;;;6.07;3.65;;;27.60;59.00;;;;;;5023079;28;20398;-47
2021/06/03 11:29:31;;;;;;;7.18;4.15;;;27.80;57.30;;;;;;5008122;28;20029;-48
2021/06/03 11:32:08;;;;;;;8.50;5.07;;;27.80;58.20;;;;;;5025802;28;20073;-53
2021/06/03 11:34:42;;;;;;;5.13;3.33;;;27.80;57.10;;;;;;5017202;28;20033;-47
2021/06/03 11:37:20;;;;;;;4.32;3.92;;;27.90;58.30;;;;;;5024212;28;20029;-48
2021/06/03 11:40:16;;;;;;;7.20;4.10;;;28.20;57.30;;;;;;5028687;28;20419;-47
2021/06/03 11:42:43;;;;;;;6.95;3.88;;;28.30;56.50;;;;;;5010581;28;20384;-49
2021/06/03 11:45:29;;;;;;;5.65;3.53;;;28.50;57.30;;;;;;5028682;28;20026;-47
2021/06/03 11:47:59;;;;;;;10.65;3.65;;;28.30;55.70;;;;;;5027852;28;20201;-47
2021/06/03 11:50:24;;;;;;;8.63;4.05;;;28.50;56.00;;;;;;5021765;28;20095;-47
2021/06/03 11:52:56;;;;;;;7.68;3.85;;;28.60;54.10;;;;;;5008566;28;20025;-47
2021/06/03 11:55:40;;;;;;;5.78;3.70;;;28.50;56.30;;;;;;5008765;28;20554;-47
2021/06/03 11:58:50;;;;;;;5.78;4.35;;;28.80;57.40;;;;;;5008322;28;20049;-48
2021/06/03 12:01:16;;;;;;;5.20;3.95;;;28.90;55.40;;;;;;5006492;28;20610;-49
2021/06/03 12:03:46;;;;;;;9.88;4.57;;;28.70;55.10;;;;;;5008497;28;20128;-48
2021/06/03 12:06:16;;;;;;;5.88;3.63;;;28.70;55.10;;;;;;5016014;28;20112;-50
2021/06/03 12:08:50;;;;;;;6.40;4.10;;;28.80;55.20;;;;;;5028749;28;20502;-47
2021/06/03 12:11:25;;;;;;;6.53;3.65;;;28.70;55.30;;;;;;5014679;28;20105;-46
2021/06/03 12:14:07;;;;;;;4.88;3.35;;;28.70;57.30;;;;;;5019413;28;20418;-47
2021/06/03 12:16:40;;;;;;;4.95;3.70;;;29.00;55.30;;;;;;5021341;28;20251;-47
2021/06/03 12:19:14;;;;;;;7.72;3.50;;;28.80;55.10;;;;;;5019976;28;20598;-47
2021/06/03 12:21:42;;;;;;;7.97;3.63;;;28.70;56.40;;;;;;5011135;28;20104;-48
2021/06/03 12:24:08;;;;;;;6.65;3.38;;;28.70;55.20;;;;;;5022175;28;20120;-50
2021/06/03 12:26:39;;;;;;;5.45;3.55;;;28.70;55.50;;;;;;5012444;28;20105;-48
2021/06/03 12:29:06;;;;;;;4.75;3.53;;;28.80;56.50;;;;;;5009975;28;20495;-49
2021/06/03 12:31:33;;;;;;;3.95;3.20;;;28.50;54.70;;;;;;5030232;28;20503;-47
2021/06/03 12:33:59;;;;;;;5.80;3.85;;;28.60;57.30;;;;;;5029776;28;20519;-47
2021/06/03 12:36:29;;;;;;;7.00;3.88;;;28.70;57.00;;;;;;5031223;28;20106;-47
2021/06/03 12:38:57;;;;;;;4.93;3.95;;;28.90;55.50;;;;;;5030867;28;20025;-47
2021/06/03 12:41:35;;;;;;;4.05;3.47;;;28.70;55.00;;;;;;5031344;28;20332;-47
2021/06/03 12:44:10;;;;;;;6.55;3.90;;;28.80;57.40;;;;;;5031669;28;20087;-49
2021/06/03 12:46:37;;;;;;;5.57;3.28;;;28.90;55.00;;;;;;5028767;28;20022;-49
2021/06/03 12:49:09;;;;;;;5.50;3.85;;;28.80;54.70;;;;;;5030708;28;20032;-48
2021/06/03 12:51:37;;;;;;;6.20;3.70;;;29.10;54.20;;;;;;5031339;28;20396;-47
2021/06/03 12:54:03;;;;;;;6.07;3.75;;;29.00;54.60;;;;;;5031004;28;20356;-50
2021/06/03 12:56:31;;;;;;;6.03;3.70;;;29.00;55.50;;;;;;5031227;28;20105;-50
2021/06/03 12:58:56;;;;;;;4.45;3.20;;;29.30;54.40;;;;;;5030423;28;20013;-48